createdAt,value
2018-07-07T00:01:07.805Z,92.50
2018-07-07T00:03:36.010Z,92.60
2018-07-07T00:06:04.290Z,92.70
2018-07-07T00:08:32.536Z,92.80
2018-07-07T00:11:00.897Z,93.10
2018-07-07T00:13:29.372Z,93.10
2018-07-07T00:15:57.604Z,93.30
2018-07-07T00:18:26.052Z,93.40
2018-07-07T00:23:22.216Z,93.60
2018-07-07T00:25:50.424Z,93.70
2018-07-07T00:28:18.736Z,93.90
2018-07-07T00:30:47.046Z,93.90
2018-07-07T00:33:15.243Z,94.10
2018-07-07T00:35:47.723Z,94.10
2018-07-07T00:38:16.065Z,94.30
2018-07-07T00:40:44.357Z,94.30
2018-07-07T00:43:13.750Z,94.30
2018-07-07T00:45:41.976Z,94.40
2018-07-07T00:48:10.253Z,94.50
2018-07-07T00:50:38.453Z,94.50
2018-07-07T00:53:06.795Z,94.60
2018-07-07T00:55:35.016Z,94.70
2018-07-07T00:58:03.260Z,94.80
2018-07-07T01:00:42.933Z,94.90
2018-07-07T01:03:11.222Z,94.90
2018-07-07T01:05:39.909Z,95.00
2018-07-07T01:08:08.110Z,95.10
2018-07-07T01:10:36.291Z,95.10
2018-07-07T01:13:04.603Z,95.30
2018-07-07T01:15:32.821Z,95.40
2018-07-07T01:18:01.118Z,95.50
2018-07-07T01:20:29.336Z,95.60
2018-07-07T01:22:57.571Z,95.60
2018-07-07T01:25:25.809Z,95.80
2018-07-07T01:27:54.070Z,95.70
2018-07-07T01:30:22.355Z,95.80
2018-07-07T01:32:50.569Z,95.80
2018-07-07T01:35:18.911Z,95.90
2018-07-07T01:37:47.419Z,96.00
2018-07-07T01:40:15.532Z,96.00
2018-07-07T01:42:43.726Z,96.20
2018-07-07T01:45:12.296Z,96.20
2018-07-07T01:47:40.676Z,96.40
2018-07-07T01:50:08.981Z,96.30
2018-07-07T01:52:37.187Z,96.50
2018-07-07T01:55:05.422Z,96.50
2018-07-07T01:57:33.653Z,96.60
2018-07-07T02:00:01.914Z,96.60
2018-07-07T02:02:30.095Z,96.60
2018-07-07T02:04:58.433Z,96.60
2018-07-07T02:07:26.729Z,96.70
2018-07-07T02:09:54.928Z,96.80
2018-07-07T02:12:23.114Z,96.80
2018-07-07T02:14:51.324Z,96.90
2018-07-07T02:17:19.536Z,96.90
2018-07-07T02:19:47.756Z,97.00
2018-07-07T02:22:19.903Z,97.00
2018-07-07T02:24:48.744Z,97.10
2018-07-07T02:27:16.952Z,97.20
2018-07-07T02:29:45.522Z,97.60
2018-07-07T02:32:13.713Z,97.40
2018-07-07T02:34:41.913Z,97.50
2018-07-07T02:37:10.465Z,97.50
2018-07-07T02:39:38.736Z,97.50
2018-07-07T02:42:06.906Z,97.60
2018-07-07T02:44:35.257Z,97.80
2018-07-07T02:47:03.449Z,97.70
2018-07-07T02:49:31.817Z,97.80
2018-07-07T02:52:00.048Z,97.90
2018-07-07T02:54:28.303Z,97.90
2018-07-07T02:56:56.493Z,98.00
2018-07-07T02:59:24.743Z,98.10
2018-07-07T03:01:52.975Z,98.20
2018-07-07T03:04:21.183Z,98.20
2018-07-07T03:06:49.552Z,98.30
2018-07-07T03:09:17.880Z,98.30
2018-07-07T03:11:46.082Z,98.40
2018-07-07T03:14:14.276Z,98.50
2018-07-07T03:16:42.464Z,98.50
2018-07-07T03:19:10.641Z,98.50
2018-07-07T03:21:39.069Z,98.50
2018-07-07T03:24:07.423Z,98.50
2018-07-07T03:26:35.617Z,98.70
2018-07-07T03:29:03.979Z,98.80
2018-07-07T03:31:32.145Z,98.80
2018-07-07T03:34:00.351Z,98.90
2018-07-07T03:36:28.668Z,99.00
2018-07-07T03:38:56.880Z,99.00
2018-07-07T03:41:25.061Z,99.00
2018-07-07T03:43:53.304Z,99.20
2018-07-07T03:46:21.483Z,99.40
2018-07-07T03:48:49.715Z,99.30
2018-07-07T03:51:18.319Z,99.40
2018-07-07T03:53:46.498Z,99.60
2018-07-07T03:59:08.577Z,99.70
2018-07-07T04:01:36.789Z,99.50
2018-07-07T04:04:05.240Z,99.50
2018-07-07T04:06:33.512Z,99.50
2018-07-07T04:09:01.749Z,99.50
2018-07-07T04:11:30.423Z,99.40
2018-07-07T04:13:58.705Z,99.80
2018-07-07T04:16:26.935Z,99.30
2018-07-07T04:18:55.091Z,99.30
2018-07-07T04:21:23.296Z,99.20
2018-07-07T04:23:51.473Z,99.20
2018-07-07T04:26:19.708Z,99.20
2018-07-07T04:28:48.001Z,99.20
2018-07-07T04:31:16.237Z,99.20
2018-07-07T04:33:44.526Z,99.20
2018-07-07T04:36:12.733Z,99.50
2018-07-07T04:38:40.924Z,99.20
2018-07-07T04:41:09.426Z,99.20
2018-07-07T04:43:37.616Z,99.20
2018-07-07T04:46:05.862Z,99.20
2018-07-07T04:48:34.080Z,99.20
2018-07-07T04:51:02.544Z,99.20
2018-07-07T04:53:30.716Z,99.10
2018-07-07T04:55:58.954Z,99.10
2018-07-07T04:58:27.295Z,99.00
2018-07-07T05:00:55.613Z,99.00
2018-07-07T05:03:23.803Z,99.00
2018-07-07T05:05:51.995Z,99.10
2018-07-07T05:08:20.165Z,99.00
2018-07-07T05:10:48.331Z,99.10
2018-07-07T05:13:16.509Z,99.00
2018-07-07T05:15:44.695Z,99.00
2018-07-07T05:18:12.882Z,98.90
2018-07-07T05:20:41.089Z,98.80
2018-07-07T05:23:09.276Z,98.80
2018-07-07T05:25:37.453Z,98.70
2018-07-07T05:28:05.812Z,98.70
2018-07-07T05:30:33.991Z,98.50
2018-07-07T05:33:02.469Z,98.20
2018-07-07T05:35:30.644Z,98.10
2018-07-07T05:37:58.833Z,97.90
2018-07-07T05:40:27.044Z,97.70
2018-07-07T05:42:55.264Z,97.60
2018-07-07T05:45:24.112Z,97.30
2018-07-07T05:47:52.272Z,97.20
2018-07-07T05:50:20.464Z,97.00
2018-07-07T05:52:48.624Z,97.00
2018-07-07T05:55:16.829Z,97.00
2018-07-07T05:57:45.006Z,96.70
2018-07-07T06:00:13.452Z,96.60
2018-07-07T06:02:41.988Z,96.50
2018-07-07T06:05:10.220Z,96.70
2018-07-07T06:07:38.413Z,96.50
2018-07-07T06:10:06.678Z,96.30
2018-07-07T06:12:34.884Z,96.20
2018-07-07T06:15:03.055Z,96.10
2018-07-07T06:17:31.794Z,95.90
2018-07-07T06:20:00.444Z,95.80
2018-07-07T06:22:28.732Z,95.60
2018-07-07T06:24:57.275Z,95.50
2018-07-07T06:27:25.557Z,95.30
2018-07-07T06:29:53.933Z,95.20
2018-07-07T06:32:22.451Z,95.20
2018-07-07T06:34:51.996Z,95.00
2018-07-07T06:39:48.361Z,95.30
2018-07-07T06:42:16.566Z,95.20
2018-07-07T06:44:45.434Z,94.70
2018-07-07T06:47:13.629Z,94.40
2018-07-07T06:49:42.041Z,94.50
2018-07-07T06:52:10.689Z,94.30
2018-07-07T06:54:40.168Z,93.20
2018-07-07T06:57:08.878Z,93.40
2018-07-07T06:59:37.131Z,93.20
2018-07-07T07:02:05.480Z,92.60
2018-07-07T07:09:30.040Z,91.80
2018-07-07T07:11:58.867Z,91.50
2018-07-07T07:14:27.124Z,90.70
2018-07-07T07:16:55.749Z,90.50
2018-07-07T07:19:23.992Z,90.00
2018-07-07T07:21:53.039Z,89.80
2018-07-07T07:24:21.416Z,87.90
2018-07-07T07:26:49.657Z,85.80
2018-07-07T07:29:17.855Z,84.50
2018-07-07T07:31:46.086Z,83.40
2018-07-07T07:34:14.336Z,81.10
2018-07-07T07:36:43.702Z,81.20
2018-07-07T07:39:12.104Z,79.90
2018-07-07T07:41:40.644Z,79.10
2018-07-07T07:44:09.668Z,78.90
2018-07-07T07:46:37.839Z,78.40
2018-07-07T07:49:06.097Z,78.70
2018-07-07T07:51:34.281Z,77.70
2018-07-07T07:54:03.153Z,77.30
2018-07-07T07:56:36.473Z,76.10
2018-07-07T07:59:05.713Z,74.80
2018-07-07T08:01:33.896Z,72.00
2018-07-07T08:04:02.191Z,72.40
2018-07-07T08:08:58.358Z,71.90
2018-07-07T08:13:55.208Z,71.00
2018-07-07T08:16:23.415Z,70.40
2018-07-07T08:18:51.752Z,71.00
2018-07-07T08:21:20.034Z,70.50
2018-07-07T08:23:49.320Z,70.00
2018-07-07T08:26:17.877Z,69.20
2018-07-07T08:28:46.929Z,68.40
2018-07-07T08:31:15.120Z,68.60
2018-07-07T08:33:43.405Z,68.20
2018-07-07T08:36:11.596Z,67.50
2018-07-07T08:38:41.124Z,67.30
2018-07-07T08:43:39.023Z,67.40
2018-07-07T08:46:07.549Z,67.40
2018-07-07T08:48:36.106Z,67.00
2018-07-07T08:51:04.320Z,67.20
2018-07-07T08:53:32.488Z,67.00
2018-07-07T08:56:00.731Z,67.70
2018-07-07T08:58:29.073Z,65.90
2018-07-07T09:00:57.293Z,65.90
2018-07-07T09:03:25.692Z,66.30
2018-07-07T09:05:55.314Z,66.70
2018-07-07T09:08:24.081Z,66.90
2018-07-07T09:10:52.254Z,66.20
2018-07-07T09:13:20.433Z,64.90
2018-07-07T09:15:48.617Z,64.30
2018-07-07T09:18:16.866Z,63.80
2018-07-07T09:20:45.057Z,63.80
2018-07-07T09:23:13.356Z,63.90
2018-07-07T09:25:41.605Z,63.70
2018-07-07T09:28:09.883Z,63.20
2018-07-07T09:30:38.120Z,62.40
2018-07-07T09:35:35.270Z,62.60
2018-07-07T09:38:06.471Z,62.40
2018-07-07T09:40:37.105Z,62.00
2018-07-07T09:45:34.322Z,60.80
2018-07-07T09:48:02.711Z,61.00
2018-07-07T09:50:30.913Z,60.20
2018-07-07T09:52:59.182Z,60.50
2018-07-07T09:55:27.500Z,59.60
2018-07-07T09:57:55.698Z,59.80
2018-07-07T10:03:12.330Z,58.90
2018-07-07T10:05:40.527Z,61.30
2018-07-07T10:08:09.115Z,58.90
2018-07-07T10:10:37.320Z,58.20
2018-07-07T10:13:06.147Z,58.20
2018-07-07T10:18:02.304Z,57.10
2018-07-07T10:20:30.476Z,56.50
2018-07-07T10:22:58.760Z,56.30
2018-07-07T10:25:26.926Z,55.40
2018-07-07T10:27:55.271Z,54.70
2018-07-07T10:30:23.477Z,54.60
2018-07-07T10:32:51.682Z,54.60
2018-07-07T10:35:19.886Z,54.50
2018-07-07T10:37:48.047Z,53.80
2018-07-07T10:40:16.372Z,53.40
2018-07-07T10:42:44.563Z,53.00
2018-07-07T10:45:12.752Z,53.30
2018-07-07T10:47:40.943Z,52.80
2018-07-07T10:50:09.317Z,52.00
2018-07-07T10:52:37.524Z,52.10
2018-07-07T10:55:06.346Z,51.70
2018-07-07T10:57:34.577Z,51.40
2018-07-07T11:00:02.792Z,51.40
2018-07-07T11:02:32.236Z,50.00
2018-07-07T11:05:00.401Z,49.40
2018-07-07T11:07:28.976Z,49.30
2018-07-07T11:09:57.800Z,49.80
2018-07-07T11:12:26.652Z,50.20
2018-07-07T11:14:55.971Z,49.40
2018-07-07T11:17:24.638Z,49.20
2018-07-07T11:19:53.702Z,48.90
2018-07-07T11:22:22.509Z,47.40
2018-07-07T11:24:50.901Z,47.60
2018-07-07T11:27:19.227Z,47.80
2018-07-07T11:29:47.451Z,47.30
2018-07-07T11:32:15.925Z,46.00
2018-07-07T11:34:44.601Z,45.80
2018-07-07T11:37:12.887Z,45.20
2018-07-07T11:39:41.238Z,45.60
2018-07-07T11:42:09.657Z,45.20
2018-07-07T11:44:38.228Z,45.30
2018-07-07T11:47:06.896Z,45.90
2018-07-07T11:49:35.100Z,46.00
2018-07-07T11:52:03.291Z,46.20
2018-07-07T11:54:31.797Z,45.70
2018-07-07T11:57:00.147Z,45.50
2018-07-07T11:59:28.403Z,45.00
2018-07-07T12:01:56.639Z,45.10
2018-07-07T12:04:25.111Z,44.80
2018-07-07T12:06:53.239Z,45.80
2018-07-07T12:09:22.000Z,44.40
2018-07-07T12:11:50.205Z,43.70
2018-07-07T12:14:18.558Z,44.30
2018-07-07T12:16:46.722Z,44.60
2018-07-07T12:21:42.945Z,44.20
2018-07-07T12:24:11.173Z,44.30
2018-07-07T12:26:39.379Z,44.50
2018-07-07T12:29:07.592Z,43.80
2018-07-07T12:31:36.065Z,44.20
2018-07-07T12:34:05.614Z,44.10
2018-07-07T12:36:35.082Z,44.20
2018-07-07T12:39:04.389Z,43.40
2018-07-07T12:41:32.617Z,43.50
2018-07-07T12:44:00.857Z,43.40
2018-07-07T12:46:29.065Z,43.30
2018-07-07T12:48:57.261Z,43.20
2018-07-07T12:51:25.538Z,43.30
2018-07-07T12:53:53.786Z,43.20
2018-07-07T12:56:22.008Z,43.10
2018-07-07T12:58:50.377Z,42.30
2018-07-07T13:01:18.673Z,42.70
2018-07-07T13:03:46.937Z,43.60
2018-07-07T13:06:15.290Z,42.80
2018-07-07T13:08:43.533Z,43.00
2018-07-07T13:11:12.126Z,43.00
2018-07-07T13:13:40.361Z,43.60
2018-07-07T13:16:08.552Z,42.70
2018-07-07T13:18:36.697Z,43.20
2018-07-07T13:21:06.270Z,43.10
2018-07-07T13:23:34.443Z,42.70
2018-07-07T13:26:02.718Z,43.30
2018-07-07T13:28:30.892Z,42.50
2018-07-07T13:30:59.114Z,42.30
2018-07-07T13:33:27.339Z,42.20
2018-07-07T13:35:55.884Z,41.60
2018-07-07T13:38:24.156Z,41.90
2018-07-07T13:40:52.337Z,41.90
2018-07-07T13:43:20.516Z,42.10
2018-07-07T13:45:48.704Z,41.80
2018-07-07T13:48:16.891Z,41.90
2018-07-07T13:50:45.101Z,42.30
2018-07-07T13:53:13.277Z,42.40
2018-07-07T13:55:41.954Z,43.20
2018-07-07T13:58:10.158Z,42.80
2018-07-07T14:00:38.382Z,42.50
2018-07-07T14:03:06.642Z,42.10
2018-07-07T14:05:34.820Z,42.00
2018-07-07T14:08:03.128Z,42.40
2018-07-07T14:10:31.323Z,41.80
2018-07-07T14:12:59.493Z,42.10
2018-07-07T14:15:27.720Z,41.70
2018-07-07T14:17:56.001Z,41.20
2018-07-07T14:20:24.220Z,41.50
2018-07-07T14:22:52.414Z,42.00
2018-07-07T14:25:20.652Z,41.80
2018-07-07T14:27:48.848Z,42.10
2018-07-07T14:30:17.032Z,42.10
2018-07-07T14:35:13.174Z,42.40
2018-07-07T14:37:41.408Z,42.20
2018-07-07T14:40:09.687Z,42.20
2018-07-07T14:42:46.499Z,42.50
2018-07-07T14:45:22.109Z,42.60
2018-07-07T14:47:51.418Z,42.70
2018-07-07T14:50:19.841Z,42.60
2018-07-07T14:52:48.334Z,42.60
2018-07-07T14:55:17.900Z,42.40
2018-07-07T14:57:46.373Z,42.30
2018-07-07T15:00:17.996Z,42.60
2018-07-07T15:02:47.092Z,42.60
2018-07-07T15:05:15.328Z,42.80
2018-07-07T15:07:43.680Z,43.10
2018-07-07T15:10:12.974Z,43.70
2018-07-07T15:12:41.181Z,43.30
2018-07-07T15:15:10.471Z,44.30
2018-07-07T15:17:39.932Z,43.30
2018-07-07T15:20:08.136Z,43.60
2018-07-07T15:22:36.440Z,43.40
2018-07-07T15:25:04.613Z,43.70
2018-07-07T15:27:32.804Z,43.20
2018-07-07T15:30:01.944Z,43.70
2018-07-07T15:32:30.135Z,43.70
2018-07-07T15:34:58.337Z,43.30
2018-07-07T15:37:26.524Z,43.90
2018-07-07T15:39:54.735Z,43.70
2018-07-07T15:42:22.972Z,43.80
2018-07-07T15:44:51.153Z,44.00
2018-07-07T15:47:19.365Z,44.30
2018-07-07T15:49:47.567Z,43.80
2018-07-07T15:52:15.780Z,43.50
2018-07-07T15:54:44.084Z,43.40
2018-07-07T15:57:12.449Z,43.20
2018-07-07T15:59:40.696Z,43.40
2018-07-07T16:02:09.009Z,43.50
2018-07-07T16:04:37.317Z,43.40
2018-07-07T16:07:05.736Z,43.40
2018-07-07T16:09:33.984Z,43.70
2018-07-07T16:12:02.388Z,44.70
2018-07-07T16:14:30.644Z,45.90
2018-07-07T16:16:58.909Z,45.60
2018-07-07T16:19:27.329Z,46.20
2018-07-07T16:21:55.654Z,45.80
2018-07-07T16:24:23.921Z,45.80
2018-07-07T16:26:52.556Z,45.50
2018-07-07T16:29:20.811Z,47.20
2018-07-07T16:31:49.216Z,46.60
2018-07-07T16:34:17.445Z,46.40
2018-07-07T16:36:47.987Z,47.80
2018-07-07T16:39:16.228Z,46.60
2018-07-07T16:41:44.628Z,45.40
2018-07-07T16:44:12.900Z,46.50
2018-07-07T16:46:41.160Z,46.10
2018-07-07T16:49:09.513Z,45.90
2018-07-07T16:51:37.761Z,46.50
2018-07-07T16:54:05.981Z,45.00
2018-07-07T16:56:34.274Z,44.60
2018-07-07T16:59:02.938Z,44.60
2018-07-07T17:01:31.254Z,45.70
2018-07-07T17:03:59.680Z,44.70
2018-07-07T17:06:28.915Z,44.90
2018-07-07T17:08:57.369Z,44.20
2018-07-07T17:11:25.595Z,43.60
2018-07-07T17:13:53.859Z,44.90
2018-07-07T17:16:22.180Z,45.50
2018-07-07T17:18:51.546Z,45.90
2018-07-07T17:21:19.824Z,48.40
2018-07-07T17:23:48.095Z,49.30
2018-07-07T17:26:16.647Z,50.20
2018-07-07T17:28:44.885Z,50.80
2018-07-07T17:31:13.086Z,53.10
2018-07-07T17:33:41.320Z,54.30
2018-07-07T17:36:09.599Z,54.60
2018-07-07T17:38:38.397Z,55.20
2018-07-07T17:41:06.580Z,52.60
2018-07-07T17:43:35.856Z,56.50
2018-07-07T17:46:04.088Z,57.00
2018-07-07T17:48:33.241Z,58.90
2018-07-07T17:51:01.461Z,60.30
2018-07-07T17:53:29.746Z,64.10
2018-07-07T17:55:58.021Z,63.40
2018-07-07T17:58:26.220Z,65.60
2018-07-07T18:00:54.436Z,67.50
2018-07-07T18:03:22.736Z,68.80
2018-07-07T18:05:50.941Z,69.20
2018-07-07T18:08:19.413Z,70.00
2018-07-07T18:10:47.638Z,67.30
2018-07-07T18:13:15.868Z,66.70
2018-07-07T18:15:44.120Z,66.80
2018-07-07T18:18:12.951Z,65.20
2018-07-07T18:20:41.261Z,64.10
2018-07-07T18:23:10.632Z,62.70
2018-07-07T18:25:38.868Z,62.80
2018-07-07T18:28:08.179Z,63.20
2018-07-07T18:30:37.936Z,64.40
2018-07-07T18:33:06.191Z,65.00
2018-07-07T18:35:36.546Z,63.70
2018-07-07T18:38:05.937Z,61.90
2018-07-07T18:40:35.574Z,63.00
2018-07-07T18:43:05.145Z,62.00
2018-07-07T18:45:34.253Z,63.80
2018-07-07T18:48:02.485Z,61.80
2018-07-07T18:50:32.740Z,61.90
2018-07-07T18:53:01.018Z,62.00
2018-07-07T18:55:29.951Z,62.00
2018-07-07T18:57:59.706Z,61.70
2018-07-07T19:00:28.120Z,61.80
2018-07-07T19:02:56.784Z,62.00
2018-07-07T19:05:25.001Z,63.60
2018-07-07T19:07:54.756Z,62.80
2018-07-07T19:10:24.125Z,62.10
2018-07-07T19:12:53.365Z,62.90
2018-07-07T19:15:22.996Z,62.10
2018-07-07T19:17:52.302Z,61.70
2018-07-07T19:20:26.476Z,62.40
2018-07-07T19:23:00.756Z,62.30
2018-07-07T19:25:35.723Z,61.90
2018-07-07T19:28:05.674Z,61.80
2018-07-07T19:30:35.146Z,62.00
2018-07-07T19:33:09.095Z,62.20
2018-07-07T19:35:43.456Z,62.20
2018-07-07T19:38:12.741Z,62.40
2018-07-07T19:40:41.841Z,63.00
2018-07-07T19:43:10.361Z,63.00
2018-07-07T19:45:38.602Z,64.40
2018-07-07T19:48:06.789Z,64.10
2018-07-07T19:50:35.728Z,64.40
2018-07-07T19:53:04.457Z,64.00
2018-07-07T19:55:32.707Z,64.40
2018-07-07T19:58:01.111Z,64.50
2018-07-07T20:00:30.240Z,64.90
2018-07-07T20:02:59.780Z,66.20
2018-07-07T20:05:28.006Z,65.70
2018-07-07T20:07:56.584Z,67.20
2018-07-07T20:10:24.761Z,66.60
2018-07-07T20:12:54.085Z,66.90
2018-07-07T20:15:33.651Z,67.60
2018-07-07T20:18:05.315Z,67.80
2018-07-07T20:20:39.076Z,68.00
2018-07-07T20:23:08.477Z,67.40
2018-07-07T20:25:37.598Z,67.30
2018-07-07T20:28:11.166Z,67.20
2018-07-07T20:30:39.670Z,67.20
2018-07-07T20:33:08.197Z,67.20
2018-07-07T20:35:37.420Z,68.10
2018-07-07T20:38:06.148Z,67.80
2018-07-07T20:40:34.412Z,68.90
2018-07-07T20:43:03.174Z,68.60
2018-07-07T20:45:31.401Z,69.00
2018-07-07T20:47:59.787Z,68.60
2018-07-07T20:50:28.817Z,68.60
2018-07-07T20:52:57.175Z,69.00
2018-07-07T20:55:26.352Z,69.20
2018-07-07T20:57:54.606Z,70.70
2018-07-07T21:00:23.596Z,70.60
2018-07-07T21:02:51.792Z,70.80
2018-07-07T21:05:21.041Z,70.90
2018-07-07T21:07:49.715Z,70.30
2018-07-07T21:10:18.345Z,71.10
2018-07-07T21:12:46.913Z,71.70
2018-07-07T21:15:15.320Z,72.00
2018-07-07T21:17:43.613Z,73.40
2018-07-07T21:20:12.448Z,75.50
2018-07-07T21:22:40.717Z,74.80
2018-07-07T21:25:08.912Z,74.30
2018-07-07T21:27:37.173Z,75.50
2018-07-07T21:30:05.533Z,75.40
2018-07-07T21:32:34.100Z,75.40
2018-07-07T21:35:03.249Z,76.90
2018-07-07T21:37:31.476Z,76.80
2018-07-07T21:39:59.677Z,76.70
2018-07-07T21:42:27.878Z,77.20
2018-07-07T21:44:56.071Z,77.20
2018-07-07T21:47:24.313Z,79.00
2018-07-07T21:49:52.541Z,78.00
2018-07-07T21:52:20.775Z,80.00
2018-07-07T21:54:49.107Z,80.90
2018-07-07T21:57:22.725Z,79.70
2018-07-07T21:59:51.054Z,78.90
2018-07-07T22:02:25.178Z,80.20
2018-07-07T22:04:58.837Z,81.30
2018-07-07T22:07:32.341Z,80.80
2018-07-07T22:10:00.546Z,80.40
2018-07-07T22:12:28.870Z,80.10
2018-07-07T22:14:57.085Z,79.80
2018-07-07T22:17:25.406Z,80.00
2018-07-07T22:19:53.613Z,81.40
2018-07-07T22:22:21.787Z,79.70
2018-07-07T22:24:50.019Z,80.60
2018-07-07T22:27:18.246Z,80.00
2018-07-07T22:29:46.491Z,79.40
2018-07-07T22:32:20.170Z,80.50
2018-07-07T22:34:48.478Z,80.10
2018-07-07T22:37:16.775Z,80.00
2018-07-07T22:39:45.555Z,80.60
2018-07-07T22:44:47.002Z,81.30
2018-07-07T22:47:15.233Z,81.10
2018-07-07T22:49:43.499Z,81.00
2018-07-07T22:52:11.884Z,81.00
2018-07-07T22:54:40.065Z,81.00
2018-07-07T22:57:08.257Z,80.60
2018-07-07T22:59:36.457Z,80.30
2018-07-07T23:02:04.669Z,80.70
2018-07-07T23:04:32.870Z,80.10
2018-07-07T23:07:01.123Z,82.00
2018-07-07T23:09:29.330Z,81.10
2018-07-07T23:11:57.523Z,81.00
2018-07-07T23:14:25.881Z,80.70
2018-07-07T23:16:58.279Z,81.10
2018-07-07T23:19:26.935Z,81.00
2018-07-07T23:21:55.318Z,80.10
2018-07-07T23:24:23.553Z,80.60
2018-07-07T23:26:51.888Z,81.10
2018-07-07T23:31:48.124Z,80.70
2018-07-07T23:34:16.345Z,79.10
2018-07-07T23:36:44.652Z,81.00
2018-07-07T23:39:13.075Z,79.50
2018-07-07T23:41:41.292Z,79.10
2018-07-07T23:44:09.472Z,79.20
2018-07-07T23:46:37.663Z,79.90
2018-07-07T23:49:05.921Z,79.20
2018-07-07T23:51:34.118Z,79.40
2018-07-07T23:54:02.518Z,79.20
2018-07-07T23:56:31.066Z,78.40
2018-07-07T23:58:59.272Z,78.20
